Dongola, Illinois
Current Conditions -  °F | °C
As of 11:15 AM on Friday 31 Oct 2014 (Local Time) from KCIR Reporting Station
Overcast Overcast  
Wind Chill: 52°   Ceiling: 3000
Heat Index: 52°   Visibility: 10mi
Dew Point: 41°   Wind: 24mph
Humidity: 67%   Direction: 340°NNW
Pressure: 30.15"   Gusts: 29mph
Location:  37.36°N, 89.17°W
Report Text: KCIR 311615Z AUTO 34021G25KT 10SM SCT024 BKN030 OVC043 11/05 A3015 RMK AO2 T01110052
Loading
Personal Weather Stations






























Interactive Weather Map
Tropical Storm Tracking
New forecast layout! Learn more

10-Day Weather Forecast

Advertisements
Track Severe Weather on mobile